createdAt,value
2023-02-12T00:02:17.540Z,13.63
2023-02-12T00:04:44.116Z,13.95
2023-02-12T00:07:10.805Z,12.90
2023-02-12T00:09:37.429Z,13.40
2023-02-12T00:12:04.090Z,13.02
2023-02-12T00:14:30.970Z,13.50
2023-02-12T00:16:57.407Z,12.85
2023-02-12T00:19:24.136Z,13.95
2023-02-12T00:21:50.985Z,13.73
2023-02-12T00:24:17.455Z,12.57
2023-02-12T00:26:43.878Z,13.35
2023-02-12T00:29:10.966Z,13.32
2023-02-12T00:31:37.884Z,12.98
2023-02-12T00:34:04.493Z,13.20
2023-02-12T00:36:31.927Z,12.77
2023-02-12T00:38:59.854Z,13.52
2023-02-12T00:41:26.665Z,13.00
2023-02-12T00:43:53.344Z,13.50
2023-02-12T00:46:20.820Z,13.77
2023-02-12T00:48:48.324Z,14.23
2023-02-12T00:51:15.023Z,13.60
2023-02-12T00:53:41.595Z,13.57
2023-02-12T00:56:08.401Z,12.75
2023-02-12T00:58:34.966Z,13.23
2023-02-12T01:01:01.829Z,13.25
2023-02-12T01:03:28.298Z,12.98
2023-02-12T01:05:55.179Z,13.13
2023-02-12T01:08:22.326Z,12.82
2023-02-12T01:11:04.930Z,13.40
2023-02-12T01:13:32.616Z,12.43
2023-02-12T01:16:10.679Z,12.40
2023-02-12T01:18:38.111Z,12.82
2023-02-12T01:21:29.452Z,12.88
2023-02-12T01:23:56.734Z,12.55
2023-02-12T01:26:24.505Z,12.73
2023-02-12T01:28:53.867Z,13.13
2023-02-12T01:31:24.431Z,13.38
2023-02-12T01:33:53.652Z,12.00
2023-02-12T01:36:20.349Z,14.80
2023-02-12T01:38:49.335Z,13.10
2023-02-12T01:41:19.210Z,12.93
2023-02-12T01:43:46.671Z,13.20
2023-02-12T01:46:15.265Z,13.02
2023-02-12T01:48:46.877Z,13.25
2023-02-12T01:51:19.969Z,13.70
2023-02-12T01:53:50.586Z,12.80
2023-02-12T01:56:18.129Z,13.18
2023-02-12T01:58:47.304Z,13.02
2023-02-12T02:01:19.789Z,13.77
2023-02-12T02:03:52.154Z,14.50
2023-02-12T02:06:31.366Z,13.75
2023-02-12T02:09:00.726Z,13.80
2023-02-12T02:11:45.758Z,13.02
2023-02-12T02:14:31.374Z,13.18
2023-02-12T02:17:13.172Z,13.25
2023-02-12T02:19:55.420Z,13.63
2023-02-12T02:22:37.938Z,12.63
2023-02-12T02:25:25.505Z,13.85
2023-02-12T02:28:15.160Z,13.10
2023-02-12T02:31:09.159Z,13.63
2023-02-12T02:34:04.703Z,13.68
2023-02-12T02:36:58.309Z,13.68
2023-02-12T02:39:38.910Z,13.15
2023-02-12T02:42:22.271Z,13.90
2023-02-12T02:45:00.120Z,13.38
2023-02-12T02:47:38.061Z,13.45
2023-02-12T02:50:17.229Z,13.50
2023-02-12T02:52:50.333Z,13.50
2023-02-12T02:55:20.610Z,12.15
2023-02-12T02:57:56.299Z,12.38
2023-02-12T03:00:37.461Z,12.05
2023-02-12T03:03:32.218Z,12.48
2023-02-12T03:06:04.912Z,12.88
2023-02-12T03:08:42.377Z,11.68
2023-02-12T03:11:17.410Z,11.85
2023-02-12T03:13:50.034Z,12.25
2023-02-12T03:16:27.565Z,11.73
2023-02-12T03:19:01.761Z,11.70
2023-02-12T03:21:42.002Z,11.50
2023-02-12T03:24:19.715Z,11.10
2023-02-12T03:26:51.081Z,11.00
2023-02-12T03:29:17.737Z,11.40
2023-02-12T03:31:54.881Z,10.90
2023-02-12T03:35:06.288Z,10.23
2023-02-12T03:37:46.016Z,10.80
2023-02-12T03:40:34.772Z,11.30
2023-02-12T03:43:22.979Z,11.55
2023-02-12T03:46:04.441Z,11.80
2023-02-12T03:48:42.112Z,11.10
2023-02-12T03:51:20.817Z,11.75
2023-02-12T03:53:48.166Z,10.85
2023-02-12T03:56:20.370Z,11.50
2023-02-12T03:58:46.828Z,11.32
2023-02-12T04:01:14.249Z,10.98
2023-02-12T04:03:41.642Z,11.13
2023-02-12T04:06:23.015Z,10.55
2023-02-12T04:08:49.863Z,10.50
2023-02-12T04:11:34.018Z,11.20
2023-02-12T04:14:19.250Z,10.70
2023-02-12T04:16:52.681Z,11.55
2023-02-12T04:19:33.431Z,11.38
2023-02-12T04:22:18.082Z,11.25
2023-02-12T04:25:11.950Z,10.73
2023-02-12T04:28:07.269Z,10.82
2023-02-12T04:30:48.429Z,10.75
2023-02-12T04:33:20.734Z,11.43
2023-02-12T04:35:55.184Z,12.27
2023-02-12T04:38:40.299Z,11.23
2023-02-12T04:41:09.109Z,11.05
2023-02-12T04:43:37.746Z,11.60
2023-02-12T04:46:06.691Z,10.65
2023-02-12T04:48:34.555Z,10.50
2023-02-12T04:51:02.281Z,10.52
2023-02-12T04:53:29.144Z,11.30
2023-02-12T04:55:55.856Z,11.25
2023-02-12T04:58:22.733Z,10.88
2023-02-12T05:00:49.201Z,10.40
2023-02-12T05:03:15.853Z,10.32
2023-02-12T05:05:42.298Z,10.27
2023-02-12T05:08:08.765Z,10.57
2023-02-12T05:10:35.221Z,11.23
2023-02-12T05:13:01.689Z,11.63
2023-02-12T05:15:28.248Z,11.25
2023-02-12T05:17:54.818Z,11.95
2023-02-12T05:20:21.378Z,11.10
2023-02-12T05:22:52.009Z,11.75
2023-02-12T05:25:18.614Z,11.60
2023-02-12T05:27:45.112Z,12.07
2023-02-12T05:30:12.305Z,10.73
2023-02-12T05:32:39.209Z,10.70
2023-02-12T05:35:06.117Z,11.70
2023-02-12T05:37:36.580Z,11.52
2023-02-12T05:40:06.797Z,11.52
2023-02-12T05:42:33.400Z,11.60
2023-02-12T05:44:59.916Z,11.85
2023-02-12T05:47:26.354Z,12.73
2023-02-12T05:49:52.826Z,12.38
2023-02-12T05:52:19.459Z,12.10
2023-02-12T05:54:49.444Z,11.70
2023-02-12T05:57:16.007Z,12.85
2023-02-12T05:59:42.474Z,12.63
2023-02-12T06:02:11.665Z,11.73
2023-02-12T06:04:38.169Z,12.60
2023-02-12T06:07:04.717Z,11.70
2023-02-12T06:09:31.164Z,12.07
2023-02-12T06:11:57.606Z,12.13
2023-02-12T06:14:24.319Z,12.20
2023-02-12T06:16:51.804Z,11.40
2023-02-12T06:19:19.811Z,11.18
2023-02-12T06:21:46.753Z,11.80
2023-02-12T06:24:15.308Z,12.25
2023-02-12T06:26:42.525Z,11.50
2023-02-12T06:29:09.466Z,11.80
2023-02-12T06:31:37.089Z,12.15
2023-02-12T06:34:06.432Z,11.63
2023-02-12T06:36:33.758Z,13.23
2023-02-12T06:39:03.666Z,12.20
2023-02-12T06:41:30.517Z,12.80
2023-02-12T06:43:57.033Z,12.27
2023-02-12T06:46:23.672Z,13.38
2023-02-12T06:48:54.842Z,12.13
2023-02-12T06:51:24.376Z,12.80
2023-02-12T06:53:52.580Z,11.70
2023-02-12T06:56:20.808Z,11.57
2023-02-12T06:58:51.975Z,12.70
2023-02-12T07:01:23.967Z,11.70
2023-02-12T07:03:53.361Z,11.95
2023-02-12T07:06:20.371Z,12.32
2023-02-12T07:08:47.326Z,11.30
2023-02-12T07:11:13.991Z,11.30
2023-02-12T07:13:41.290Z,14.02
2023-02-12T07:16:11.095Z,12.13
2023-02-12T07:18:39.490Z,12.60
2023-02-12T07:21:08.470Z,12.32
2023-02-12T07:23:35.728Z,12.13
2023-02-12T07:26:05.453Z,12.50
2023-02-12T07:28:33.963Z,12.05
2023-02-12T07:31:07.839Z,12.00
2023-02-12T07:33:34.955Z,12.63
2023-02-12T07:36:02.206Z,13.18
2023-02-12T07:38:28.896Z,12.25
2023-02-12T07:41:14.313Z,12.27
2023-02-12T07:43:43.334Z,11.95
2023-02-12T07:46:17.601Z,12.15
2023-02-12T07:48:45.404Z,12.50
2023-02-12T07:51:15.601Z,11.95
2023-02-12T07:53:42.905Z,12.98
2023-02-12T07:56:12.547Z,11.80
2023-02-12T08:01:47.095Z,11.85
2023-02-12T08:04:16.528Z,11.27
2023-02-12T08:06:45.535Z,11.35
2023-02-12T08:09:15.597Z,12.15
2023-02-12T08:11:44.769Z,11.25
2023-02-12T08:14:13.830Z,10.60
2023-02-12T08:16:42.224Z,9.57
2023-02-12T08:19:18.712Z,10.32
2023-02-12T08:21:48.874Z,9.95
2023-02-12T08:24:15.497Z,9.23
2023-02-12T08:26:42.017Z,9.25
2023-02-12T08:29:12.221Z,9.75
2023-02-12T08:31:41.599Z,9.43
2023-02-12T08:34:17.701Z,9.10
2023-02-12T08:36:44.837Z,8.95
2023-02-12T08:39:12.237Z,9.15
2023-02-12T08:41:38.750Z,9.30
2023-02-12T08:44:05.909Z,8.60
2023-02-12T08:46:35.071Z,7.57
2023-02-12T08:49:23.368Z,9.02
2023-02-12T08:51:52.676Z,6.95
2023-02-12T08:54:25.242Z,7.75
2023-02-12T08:56:59.114Z,8.00
2023-02-12T08:59:27.058Z,9.32
2023-02-12T09:01:54.358Z,8.80
2023-02-12T09:04:26.893Z,8.75
2023-02-12T09:06:54.113Z,8.98
2023-02-12T09:09:23.606Z,9.45
2023-02-12T09:11:50.475Z,8.60
2023-02-12T09:14:18.834Z,8.30
2023-02-12T09:16:45.467Z,8.93
2023-02-12T09:19:14.053Z,8.07
2023-02-12T09:21:40.906Z,7.70
2023-02-12T09:24:08.342Z,8.40
2023-02-12T09:26:35.056Z,8.27
2023-02-12T09:29:04.288Z,8.40
2023-02-12T09:31:33.555Z,8.30
2023-02-12T09:34:06.364Z,9.00
2023-02-12T09:36:33.499Z,8.50
2023-02-12T09:39:00.895Z,8.75
2023-02-12T09:41:52.183Z,8.80
2023-02-12T09:44:27.444Z,9.15
2023-02-12T09:47:11.698Z,9.30
2023-02-12T09:49:40.960Z,9.52
2023-02-12T09:52:15.529Z,9.30
2023-02-12T09:54:42.361Z,10.55
2023-02-12T09:57:37.859Z,12.90
2023-02-12T10:00:18.301Z,11.57
2023-02-12T10:02:45.091Z,9.00
2023-02-12T10:05:27.010Z,8.48
2023-02-12T10:08:12.237Z,8.65
2023-02-12T10:10:52.946Z,9.02
2023-02-12T10:13:35.551Z,8.00
2023-02-12T10:16:25.507Z,8.10
2023-02-12T10:19:02.935Z,7.70
2023-02-12T10:21:38.717Z,9.15
2023-02-12T10:24:51.657Z,12.40
2023-02-12T10:27:34.694Z,15.70
2023-02-12T10:30:13.874Z,15.15
2023-02-12T10:32:43.355Z,14.75
2023-02-12T10:35:15.800Z,14.45
2023-02-12T10:38:07.748Z,14.90
2023-02-12T10:40:38.388Z,13.15
2023-02-12T10:43:04.922Z,11.98
2023-02-12T10:45:34.257Z,11.60
2023-02-12T10:48:08.803Z,12.15
2023-02-12T10:50:49.252Z,12.05
2023-02-12T10:53:35.287Z,11.93
2023-02-12T10:56:20.954Z,11.45
2023-02-12T10:58:50.487Z,11.77
2023-02-12T11:01:22.178Z,10.48
2023-02-12T11:03:48.895Z,9.90
2023-02-12T11:06:30.688Z,9.55
2023-02-12T11:08:58.638Z,9.68
2023-02-12T11:11:33.157Z,10.35
2023-02-12T11:14:21.067Z,10.73
2023-02-12T11:16:55.796Z,10.13
2023-02-12T11:19:28.224Z,9.70
2023-02-12T11:22:10.326Z,10.30
2023-02-12T11:24:38.251Z,11.18
2023-02-12T11:27:17.009Z,9.90
2023-02-12T11:29:48.883Z,10.23
2023-02-12T11:32:19.611Z,10.90
2023-02-12T11:35:18.690Z,11.05
2023-02-12T11:37:46.976Z,11.43
2023-02-12T11:40:24.219Z,11.43
2023-02-12T11:42:58.110Z,10.75
2023-02-12T11:45:34.543Z,12.48
2023-02-12T11:48:01.875Z,13.40
2023-02-12T11:50:31.336Z,13.13
2023-02-12T11:53:08.080Z,12.00
2023-02-12T11:55:39.235Z,15.80
2023-02-12T11:58:17.737Z,12.48
2023-02-12T12:01:04.468Z,12.38
2023-02-12T12:04:02.547Z,12.13
2023-02-12T12:06:35.330Z,12.07
2023-02-12T12:09:10.983Z,11.95
2023-02-12T12:11:46.420Z,12.95
2023-02-12T12:14:27.174Z,13.10
2023-02-12T12:17:23.537Z,14.25
2023-02-12T12:20:17.956Z,14.23
2023-02-12T12:22:54.598Z,15.45
2023-02-12T12:25:24.264Z,15.75
2023-02-12T12:28:06.508Z,16.15
2023-02-12T12:31:10.216Z,17.05
2023-02-12T12:34:17.115Z,16.85
2023-02-12T12:37:08.536Z,14.27
2023-02-12T12:39:54.913Z,13.82
2023-02-12T12:42:49.594Z,13.73
2023-02-12T12:46:12.843Z,12.82
2023-02-12T12:48:50.024Z,11.88
2023-02-12T12:51:30.599Z,13.02
2023-02-12T12:54:19.090Z,11.40
2023-02-12T12:57:05.855Z,11.30
2023-02-12T12:59:49.681Z,10.63
2023-02-12T13:02:54.554Z,11.43
2023-02-12T13:05:48.550Z,11.07
2023-02-12T13:08:41.535Z,11.30
2023-02-12T13:11:25.419Z,11.30
2023-02-12T13:14:02.287Z,11.32
2023-02-12T13:16:36.471Z,11.52
2023-02-12T13:19:28.462Z,11.07
2023-02-12T13:22:09.839Z,11.48
2023-02-12T13:24:58.224Z,11.77
2023-02-12T13:27:30.807Z,10.50
2023-02-12T13:30:06.823Z,9.68
2023-02-12T13:32:37.996Z,10.75
2023-02-12T13:35:07.610Z,10.57
2023-02-12T13:37:48.833Z,9.95
2023-02-12T13:40:21.649Z,9.38
2023-02-12T13:42:58.638Z,8.80
2023-02-12T13:45:38.602Z,8.95
2023-02-12T13:48:53.298Z,9.20
2023-02-12T13:51:44.026Z,8.95
2023-02-12T13:54:37.630Z,9.68
2023-02-12T13:57:12.251Z,10.88
2023-02-12T13:59:41.664Z,9.20
2023-02-12T14:02:29.693Z,9.65
2023-02-12T14:04:59.865Z,9.32
2023-02-12T14:07:45.708Z,9.20
2023-02-12T14:10:41.239Z,9.35
2023-02-12T14:13:19.481Z,9.07
2023-02-12T14:15:51.606Z,9.23
2023-02-12T14:18:32.111Z,9.32
2023-02-12T14:21:13.856Z,9.00
2023-02-12T14:23:42.646Z,9.07
2023-02-12T14:26:12.655Z,8.23
2023-02-12T14:28:59.174Z,8.82
2023-02-12T14:31:38.617Z,8.80
2023-02-12T14:34:05.106Z,8.57
2023-02-12T14:36:32.094Z,9.18
2023-02-12T14:39:04.802Z,7.43
2023-02-12T14:41:37.886Z,8.10
2023-02-12T14:44:23.229Z,8.07
2023-02-12T14:46:59.307Z,8.20
2023-02-12T14:49:36.805Z,8.25
2023-02-12T14:52:13.863Z,7.78
2023-02-12T14:54:47.354Z,7.72
2023-02-12T14:57:36.080Z,7.55
2023-02-12T15:00:05.653Z,7.13
2023-02-12T15:02:36.175Z,7.25
2023-02-12T15:05:13.700Z,6.68
2023-02-12T15:08:05.169Z,8.35
2023-02-12T15:10:39.865Z,7.18
2023-02-12T15:13:30.261Z,7.70
2023-02-12T15:16:09.440Z,7.40
2023-02-12T15:18:55.532Z,6.93
2023-02-12T15:21:31.860Z,6.95
2023-02-12T15:24:06.011Z,6.80
2023-02-12T15:26:37.915Z,7.45
2023-02-12T15:29:05.592Z,6.95
2023-02-12T15:31:33.660Z,6.57
2023-02-12T15:34:03.955Z,6.53
2023-02-12T15:36:33.223Z,5.90
2023-02-12T15:39:06.450Z,6.47
2023-02-12T15:41:33.019Z,6.57
2023-02-12T15:44:01.239Z,6.82
2023-02-12T15:46:29.697Z,7.05
2023-02-12T15:48:56.650Z,6.90
2023-02-12T15:51:35.433Z,6.68
2023-02-12T15:54:06.345Z,6.90
2023-02-12T15:56:36.241Z,7.35
2023-02-12T15:59:04.413Z,6.88
2023-02-12T16:01:35.699Z,7.32
2023-02-12T16:04:05.283Z,6.82
2023-02-12T16:06:36.766Z,7.72
2023-02-12T16:09:03.793Z,7.95
2023-02-12T16:11:32.673Z,8.43
2023-02-12T16:14:24.589Z,10.50
2023-02-12T16:16:55.849Z,12.10
2023-02-12T16:19:33.061Z,10.90
2023-02-12T16:22:05.835Z,12.32
2023-02-12T16:24:37.265Z,12.38
2023-02-12T16:27:20.416Z,12.50
2023-02-12T16:29:50.551Z,12.05
2023-02-12T16:32:44.984Z,11.10
2023-02-12T16:35:11.720Z,9.32
2023-02-12T16:37:38.501Z,8.18
2023-02-12T16:40:15.437Z,7.78
2023-02-12T16:42:47.973Z,8.23
2023-02-12T16:45:27.549Z,7.55
2023-02-12T16:48:07.541Z,6.55
2023-02-12T16:50:39.372Z,7.28
2023-02-12T16:53:22.499Z,7.45
2023-02-12T16:55:49.836Z,6.72
2023-02-12T16:58:16.899Z,7.35
2023-02-12T17:00:43.548Z,7.07
2023-02-12T17:03:14.885Z,6.95
2023-02-12T17:05:43.603Z,6.45
2023-02-12T17:08:14.842Z,7.05
2023-02-12T17:10:41.712Z,7.63
2023-02-12T17:13:09.667Z,7.03
2023-02-12T17:15:57.793Z,7.32
2023-02-12T17:18:25.097Z,7.10
2023-02-12T17:20:57.794Z,6.97
2023-02-12T17:23:25.186Z,7.60
2023-02-12T17:25:53.559Z,8.05
2023-02-12T17:28:21.617Z,6.93
2023-02-12T17:30:49.101Z,7.30
2023-02-12T17:33:16.375Z,7.00
2023-02-12T17:35:43.154Z,6.47
2023-02-12T17:38:09.796Z,6.85
2023-02-12T17:40:38.326Z,7.32
2023-02-12T17:43:05.823Z,7.65
2023-02-12T17:45:34.126Z,7.47
2023-02-12T17:48:00.777Z,7.70
2023-02-12T17:50:27.385Z,6.53
2023-02-12T17:52:54.980Z,6.13
2023-02-12T17:55:21.691Z,6.15
2023-02-12T17:57:54.366Z,6.20
2023-02-12T18:00:22.713Z,5.75
2023-02-12T18:02:51.977Z,5.63
2023-02-12T18:05:18.690Z,5.72
2023-02-12T18:07:46.964Z,6.03
2023-02-12T18:10:14.285Z,6.20
2023-02-12T18:12:42.502Z,5.97
2023-02-12T18:15:10.279Z,6.20
2023-02-12T18:17:37.030Z,5.25
2023-02-12T18:20:04.323Z,5.05
2023-02-12T18:22:33.388Z,5.07
2023-02-12T18:25:01.283Z,5.22
2023-02-12T18:27:30.408Z,4.85
2023-02-12T18:29:58.312Z,4.90
2023-02-12T18:32:24.978Z,5.35
2023-02-12T18:34:51.888Z,5.30
2023-02-12T18:37:18.569Z,5.65
2023-02-12T18:39:45.174Z,5.47
2023-02-12T18:42:11.981Z,5.05
2023-02-12T18:44:41.090Z,5.55
2023-02-12T18:47:07.602Z,6.15
2023-02-12T18:49:34.234Z,5.20
2023-02-12T18:52:02.098Z,6.13
2023-02-12T18:54:29.084Z,7.55
2023-02-12T18:56:55.581Z,8.10
2023-02-12T18:59:22.753Z,6.13
2023-02-12T19:01:53.085Z,8.43
2023-02-12T19:04:21.838Z,6.45
2023-02-12T19:06:50.929Z,6.13
2023-02-12T19:09:20.288Z,6.18
2023-02-12T19:11:52.197Z,6.80
2023-02-12T19:14:20.492Z,6.47
2023-02-12T19:16:48.326Z,7.68
2023-02-12T19:19:16.456Z,6.30
2023-02-12T19:21:43.719Z,7.22
2023-02-12T19:24:12.788Z,7.38
2023-02-12T19:26:41.386Z,7.45
2023-02-12T19:29:08.765Z,7.55
2023-02-12T19:31:38.338Z,7.50
2023-02-12T19:34:17.654Z,8.02
2023-02-12T19:36:45.242Z,7.95
2023-02-12T19:39:17.653Z,8.55
2023-02-12T19:41:47.928Z,13.23
2023-02-12T19:44:21.102Z,8.43
2023-02-12T19:46:51.574Z,8.93
2023-02-12T19:49:21.093Z,8.52
2023-02-12T19:51:48.249Z,8.18
2023-02-12T19:54:18.458Z,9.57
2023-02-12T19:56:45.349Z,8.10
2023-02-12T19:59:19.838Z,7.53
2023-02-12T20:01:48.436Z,9.38
2023-02-12T20:04:18.536Z,7.53
2023-02-12T20:06:49.034Z,8.52
2023-02-12T20:09:15.658Z,7.72
2023-02-12T20:11:42.344Z,8.55
2023-02-12T20:14:11.524Z,7.65
2023-02-12T20:16:41.539Z,7.07
2023-02-12T20:19:18.082Z,7.20
2023-02-12T20:21:45.261Z,7.97
2023-02-12T20:24:16.114Z,7.25
2023-02-12T20:26:42.729Z,7.60
2023-02-12T20:29:09.379Z,7.32
2023-02-12T20:31:37.468Z,7.28
2023-02-12T20:34:11.095Z,7.47
2023-02-12T20:36:40.593Z,7.22
2023-02-12T20:39:10.829Z,6.97
2023-02-12T20:41:37.592Z,6.95
2023-02-12T20:44:06.248Z,6.78
2023-02-12T20:46:36.089Z,6.80
2023-02-12T20:49:05.106Z,7.20
2023-02-12T20:51:32.245Z,6.55
2023-02-12T20:54:01.630Z,6.38
2023-02-12T20:56:31.668Z,6.85
2023-02-12T20:58:58.971Z,8.68
2023-02-12T21:01:31.522Z,7.07
2023-02-12T21:04:05.565Z,7.32
2023-02-12T21:06:33.373Z,6.35
2023-02-12T21:09:02.662Z,6.97
2023-02-12T21:11:29.733Z,6.95
2023-02-12T21:14:02.612Z,6.80
2023-02-12T21:16:37.227Z,7.03
2023-02-12T21:19:04.951Z,6.68
2023-02-12T21:21:34.318Z,7.88
2023-02-12T21:24:03.163Z,8.38
2023-02-12T21:26:32.136Z,8.60
2023-02-12T21:29:00.132Z,8.55
2023-02-12T21:31:32.507Z,8.45
2023-02-12T21:34:00.794Z,8.15
2023-02-12T21:36:36.397Z,8.23
2023-02-12T21:39:04.949Z,7.50
2023-02-12T21:41:37.360Z,7.20
2023-02-12T21:44:10.496Z,7.75
2023-02-12T21:46:37.221Z,7.82
2023-02-12T21:49:04.883Z,7.85
2023-02-12T21:51:40.449Z,7.35
2023-02-12T21:54:11.522Z,7.68
2023-02-12T21:56:40.066Z,7.85
2023-02-12T21:59:08.602Z,7.18
2023-02-12T22:01:41.626Z,7.25
2023-02-12T22:04:09.187Z,6.38
2023-02-12T22:06:45.792Z,7.15
2023-02-12T22:09:14.324Z,6.57
2023-02-12T22:11:41.966Z,7.07
2023-02-12T22:14:12.677Z,6.50
2023-02-12T22:16:40.944Z,7.03
2023-02-12T22:19:08.255Z,6.50
2023-02-12T22:21:37.617Z,7.38
2023-02-12T22:24:07.420Z,6.55
2023-02-12T22:26:34.350Z,7.28
2023-02-12T22:29:06.904Z,6.60
2023-02-12T22:31:37.229Z,7.28
2023-02-12T22:34:07.184Z,7.28
2023-02-12T22:36:35.478Z,7.05
2023-02-12T22:39:02.281Z,7.35
2023-02-12T22:41:29.392Z,7.32
2023-02-12T22:43:59.380Z,7.15
2023-02-12T22:46:26.489Z,7.40
2023-02-12T22:48:53.063Z,8.82
2023-02-12T22:51:26.578Z,14.30
2023-02-12T22:53:55.142Z,10.80
2023-02-12T22:56:24.033Z,10.27
2023-02-12T22:58:55.885Z,9.30
2023-02-12T23:01:23.398Z,8.77
2023-02-12T23:03:51.404Z,8.80
2023-02-12T23:06:20.628Z,8.02
2023-02-12T23:08:51.930Z,8.13
2023-02-12T23:11:19.409Z,8.02
2023-02-12T23:13:46.003Z,8.07
2023-02-12T23:16:13.089Z,7.10
2023-02-12T23:18:39.693Z,7.18
2023-02-12T23:21:06.406Z,7.95
2023-02-12T23:23:32.964Z,7.32
2023-02-12T23:25:59.699Z,7.53
2023-02-12T23:28:26.339Z,8.38
2023-02-12T23:30:53.453Z,7.43
2023-02-12T23:33:20.857Z,7.70
2023-02-12T23:35:48.681Z,7.60
2023-02-12T23:38:17.640Z,7.60
2023-02-12T23:40:44.996Z,7.78
2023-02-12T23:43:11.541Z,7.32
2023-02-12T23:45:38.304Z,7.93
2023-02-12T23:48:06.001Z,7.72
2023-02-12T23:50:34.086Z,7.35
2023-02-12T23:53:00.719Z,7.90
2023-02-12T23:55:27.877Z,8.38
2023-02-12T23:57:54.402Z,8.30
